Terminal Aerodrome Forecast
Issued by NWS Upton, NY

Home | Current Version | Previous Version | Text Only | Print | Product List | Glossary On
Versions: 1 2 3 4 5 6 7 8 9 10 11 12 13 14 15 16 17 18 19 20 21 22 23 24 25 26 27
000
FTUS41 KOKX 241100
TAFJFK
TAF
KJFK 241139Z 2412/2518 18028G39KT 6SM -SHRA BR OVC009 WS020/20055KT
     FM241500 19020G30KT P6SM BKN012
     FM242000 19018G30KT P6SM SCT012 BKN020
     FM250400 22014G23KT P6SM SCT020 BKN250
     FM250900 25010KT P6SM FEW020 BKN250
     FM251400 27013G21KT P6SM BKN250=

USA.gov is the U.S. government's official web portal to all federal, state and local government web resources and services.